Chapayevsk, Russia
Current Conditions -  °F | °C
As of 3:30 PM on Wednesday 26 Nov 2014 (Local Time) from UWWW Reporting Station
Clear Clear  
Wind Chill: 12°   Ceiling: Unl
Heat Index: 23°   Visibility: 6mi
Dew Point:   Wind: 11mph
Humidity: 54%   Direction: 270°W
Pressure: 30.39"   Gusts: NA
Location:  52.97°N, 49.69°E
Report Text: UWWW 261130Z 27005MPS CAVOK M05/M13 Q1029 23450347 15//99//NOSIG RMK QFE761/1014
Loading
Personal Weather Stations






























Interactive Weather Map New forecast layout! Learn more

10-Day Weather Forecast

Advertisements
Track Severe Weather on mobile